Capitol Reef, Utah
Current Conditions -  °F | °C
As of 6:53 AM on Thursday 18 Dec 2014 (Local Time) from KBCE Reporting Station
Scattered Clouds Scattered Clouds  
Wind Chill: -17°   Ceiling: Unl
Heat Index: -10°   Visibility: 10mi
Dew Point: -12°   Wind: 9mph
Humidity: 84%   Direction: 270°W
Pressure: 30.09"   Gusts: NA
Location:  38.2517°N, 111.706°W
Report Text: KBCE 181353Z AUTO 27008KT 10SM FEW050 SCT085 M10/M12 A3009 RMK AO2 SLP204 I1000 T11001122
Loading
Personal Weather Stations






























Interactive Weather Map New forecast layout! Learn more

10-Day Weather Forecast

Advertisements
Track Severe Weather on mobile